sensor_id;sensor_type;location;lat;lon;timestamp;P1;durP1;ratioP1;P2;durP2;ratioP2
55009;SDS011;40903;51.638;7.528;2023-05-07T00:00:52;9.80;;;8.83;;
55009;SDS011;40903;51.638;7.528;2023-05-07T00:03:17;9.93;;;8.97;;
55009;SDS011;40903;51.638;7.528;2023-05-07T00:05:44;11.03;;;8.93;;
55009;SDS011;40903;51.638;7.528;2023-05-07T00:08:09;9.80;;;8.90;;
55009;SDS011;40903;51.638;7.528;2023-05-07T00:10:35;8.70;;;7.90;;
55009;SDS011;40903;51.638;7.528;2023-05-07T00:13:00;9.30;;;8.33;;
55009;SDS011;40903;51.638;7.528;2023-05-07T00:15:26;9.90;;;8.63;;
55009;SDS011;40903;51.638;7.528;2023-05-07T00:17:51;9.77;;;8.53;;
55009;SDS011;40903;51.638;7.528;2023-05-07T00:20:16;9.67;;;8.67;;
55009;SDS011;40903;51.638;7.528;2023-05-07T00:22:42;8.50;;;7.07;;
55009;SDS011;40903;51.638;7.528;2023-05-07T00:25:07;8.87;;;7.97;;
55009;SDS011;40903;51.638;7.528;2023-05-07T00:27:33;9.57;;;8.57;;
55009;SDS011;40903;51.638;7.528;2023-05-07T00:29:58;9.17;;;8.23;;
55009;SDS011;40903;51.638;7.528;2023-05-07T00:32:24;9.80;;;8.90;;
55009;SDS011;40903;51.638;7.528;2023-05-07T00:34:49;8.23;;;7.47;;
55009;SDS011;40903;51.638;7.528;2023-05-07T00:37:15;8.13;;;7.13;;
55009;SDS011;40903;51.638;7.528;2023-05-07T00:39:41;8.43;;;7.57;;
55009;SDS011;40903;51.638;7.528;2023-05-07T00:42:06;7.70;;;6.87;;
55009;SDS011;40903;51.638;7.528;2023-05-07T00:44:33;8.90;;;8.10;;
55009;SDS011;40903;51.638;7.528;2023-05-07T00:46:58;9.57;;;7.67;;
55009;SDS011;40903;51.638;7.528;2023-05-07T00:49:29;8.13;;;7.33;;
55009;SDS011;40903;51.638;7.528;2023-05-07T00:52:02;8.03;;;7.33;;
55009;SDS011;40903;51.638;7.528;2023-05-07T00:54:28;9.57;;;8.67;;
55009;SDS011;40903;51.638;7.528;2023-05-07T00:56:54;10.23;;;8.90;;
55009;SDS011;40903;51.638;7.528;2023-05-07T00:59:20;8.50;;;7.50;;
55009;SDS011;40903;51.638;7.528;2023-05-07T01:01:45;8.80;;;8.00;;
55009;SDS011;40903;51.638;7.528;2023-05-07T01:04:10;7.80;;;7.10;;
55009;SDS011;40903;51.638;7.528;2023-05-07T01:06:36;9.07;;;8.20;;
55009;SDS011;40903;51.638;7.528;2023-05-07T01:09:02;7.30;;;6.60;;
55009;SDS011;40903;51.638;7.528;2023-05-07T01:11:31;7.63;;;6.93;;
55009;SDS011;40903;51.638;7.528;2023-05-07T01:13:57;8.37;;;7.53;;
55009;SDS011;40903;51.638;7.528;2023-05-07T01:16:24;9.27;;;8.37;;
55009;SDS011;40903;51.638;7.528;2023-05-07T01:18:50;12.17;;;10.97;;
55009;SDS011;40903;51.638;7.528;2023-05-07T01:21:16;11.57;;;9.57;;
55009;SDS011;40903;51.638;7.528;2023-05-07T01:23:42;11.50;;;10.40;;
55009;SDS011;40903;51.638;7.528;2023-05-07T01:26:10;12.10;;;10.90;;
55009;SDS011;40903;51.638;7.528;2023-05-07T01:28:35;11.27;;;10.07;;
55009;SDS011;40903;51.638;7.528;2023-05-07T01:31:01;12.90;;;10.70;;
55009;SDS011;40903;51.638;7.528;2023-05-07T01:33:29;10.47;;;9.53;;
55009;SDS011;40903;51.638;7.528;2023-05-07T01:35:57;10.97;;;9.97;;
55009;SDS011;40903;51.638;7.528;2023-05-07T01:38:25;11.27;;;10.07;;
55009;SDS011;40903;51.638;7.528;2023-05-07T01:40:51;12.23;;;11.03;;
55009;SDS011;40903;51.638;7.528;2023-05-07T01:43:18;10.77;;;9.77;;
55009;SDS011;40903;51.638;7.528;2023-05-07T01:45:44;10.00;;;9.10;;
55009;SDS011;40903;51.638;7.528;2023-05-07T01:48:10;12.93;;;11.67;;
55009;SDS011;40903;51.638;7.528;2023-05-07T01:50:37;12.20;;;9.97;;
55009;SDS011;40903;51.638;7.528;2023-05-07T01:53:03;10.47;;;9.47;;
55009;SDS011;40903;51.638;7.528;2023-05-07T01:55:29;12.73;;;11.37;;
55009;SDS011;40903;51.638;7.528;2023-05-07T01:57:55;12.27;;;11.07;;
55009;SDS011;40903;51.638;7.528;2023-05-07T02:00:20;11.27;;;10.10;;
55009;SDS011;40903;51.638;7.528;2023-05-07T02:02:46;12.17;;;10.87;;
55009;SDS011;40903;51.638;7.528;2023-05-07T02:05:11;10.13;;;9.13;;
55009;SDS011;40903;51.638;7.528;2023-05-07T02:07:37;11.57;;;10.47;;
55009;SDS011;40903;51.638;7.528;2023-05-07T02:10:02;11.50;;;10.40;;
55009;SDS011;40903;51.638;7.528;2023-05-07T02:12:28;13.33;;;11.20;;
55009;SDS011;40903;51.638;7.528;2023-05-07T02:14:53;14.00;;;12.67;;
55009;SDS011;40903;51.638;7.528;2023-05-07T02:17:19;11.23;;;10.13;;
55009;SDS011;40903;51.638;7.528;2023-05-07T02:19:45;11.90;;;10.73;;
55009;SDS011;40903;51.638;7.528;2023-05-07T02:22:10;13.60;;;12.17;;
55009;SDS011;40903;51.638;7.528;2023-05-07T02:24:35;14.67;;;13.27;;
55009;SDS011;40903;51.638;7.528;2023-05-07T02:27:01;14.87;;;13.47;;
55009;SDS011;40903;51.638;7.528;2023-05-07T02:29:27;14.63;;;13.17;;
55009;SDS011;40903;51.638;7.528;2023-05-07T02:31:52;15.37;;;13.83;;
55009;SDS011;40903;51.638;7.528;2023-05-07T02:34:18;13.97;;;12.30;;
55009;SDS011;40903;51.638;7.528;2023-05-07T02:36:44;14.70;;;13.20;;
55009;SDS011;40903;51.638;7.528;2023-05-07T02:39:10;15.83;;;14.20;;
55009;SDS011;40903;51.638;7.528;2023-05-07T02:41:37;15.07;;;12.90;;
55009;SDS011;40903;51.638;7.528;2023-05-07T02:44:02;12.67;;;11.47;;
55009;SDS011;40903;51.638;7.528;2023-05-07T02:46:27;12.37;;;11.17;;
55009;SDS011;40903;51.638;7.528;2023-05-07T02:48:53;13.83;;;12.43;;
55009;SDS011;40903;51.638;7.528;2023-05-07T02:51:21;13.50;;;12.10;;
55009;SDS011;40903;51.638;7.528;2023-05-07T02:53:47;10.53;;;9.43;;
55009;SDS011;40903;51.638;7.528;2023-05-07T02:56:12;12.53;;;10.20;;
55009;SDS011;40903;51.638;7.528;2023-05-07T02:58:38;11.07;;;9.93;;
55009;SDS011;40903;51.638;7.528;2023-05-07T03:01:07;11.77;;;9.83;;
55009;SDS011;40903;51.638;7.528;2023-05-07T03:03:32;10.57;;;9.43;;
55009;SDS011;40903;51.638;7.528;2023-05-07T03:05:58;11.10;;;9.50;;
55009;SDS011;40903;51.638;7.528;2023-05-07T03:08:23;10.57;;;9.57;;
55009;SDS011;40903;51.638;7.528;2023-05-07T03:10:49;11.33;;;10.03;;
55009;SDS011;40903;51.638;7.528;2023-05-07T03:13:15;11.07;;;9.97;;
55009;SDS011;40903;51.638;7.528;2023-05-07T03:15:40;11.80;;;10.20;;
55009;SDS011;40903;51.638;7.528;2023-05-07T03:18:06;11.10;;;10.00;;
55009;SDS011;40903;51.638;7.528;2023-05-07T03:20:31;11.23;;;10.07;;
55009;SDS011;40903;51.638;7.528;2023-05-07T03:22:57;10.30;;;9.40;;
55009;SDS011;40903;51.638;7.528;2023-05-07T03:25:22;11.90;;;9.73;;
55009;SDS011;40903;51.638;7.528;2023-05-07T03:27:48;11.13;;;10.10;;
55009;SDS011;40903;51.638;7.528;2023-05-07T03:30:13;10.93;;;9.67;;
55009;SDS011;40903;51.638;7.528;2023-05-07T03:32:39;9.57;;;8.57;;
55009;SDS011;40903;51.638;7.528;2023-05-07T03:35:05;11.37;;;10.17;;
55009;SDS011;40903;51.638;7.528;2023-05-07T03:37:30;11.90;;;10.70;;
55009;SDS011;40903;51.638;7.528;2023-05-07T03:39:56;11.87;;;10.67;;
55009;SDS011;40903;51.638;7.528;2023-05-07T03:42:21;10.37;;;9.37;;
55009;SDS011;40903;51.638;7.528;2023-05-07T03:44:47;11.67;;;10.47;;
55009;SDS011;40903;51.638;7.528;2023-05-07T03:47:12;9.90;;;8.90;;
55009;SDS011;40903;51.638;7.528;2023-05-07T03:49:38;10.20;;;9.10;;
55009;SDS011;40903;51.638;7.528;2023-05-07T03:52:04;10.93;;;9.93;;
55009;SDS011;40903;51.638;7.528;2023-05-07T03:54:30;11.70;;;10.50;;
55009;SDS011;40903;51.638;7.528;2023-05-07T03:56:56;10.30;;;9.37;;
55009;SDS011;40903;51.638;7.528;2023-05-07T03:59:22;10.70;;;9.60;;
55009;SDS011;40903;51.638;7.528;2023-05-07T04:01:47;10.23;;;8.63;;
55009;SDS011;40903;51.638;7.528;2023-05-07T04:04:13;10.43;;;8.93;;
55009;SDS011;40903;51.638;7.528;2023-05-07T04:06:40;10.40;;;9.27;;
55009;SDS011;40903;51.638;7.528;2023-05-07T04:09:06;10.17;;;8.37;;
55009;SDS011;40903;51.638;7.528;2023-05-07T04:11:31;10.20;;;8.47;;
55009;SDS011;40903;51.638;7.528;2023-05-07T04:13:57;10.47;;;9.43;;
55009;SDS011;40903;51.638;7.528;2023-05-07T04:16:22;10.10;;;9.10;;
55009;SDS011;40903;51.638;7.528;2023-05-07T04:18:47;10.73;;;9.63;;
55009;SDS011;40903;51.638;7.528;2023-05-07T04:21:16;9.77;;;8.83;;
55009;SDS011;40903;51.638;7.528;2023-05-07T04:23:42;10.60;;;9.43;;
55009;SDS011;40903;51.638;7.528;2023-05-07T04:26:08;10.20;;;9.20;;
55009;SDS011;40903;51.638;7.528;2023-05-07T04:28:34;10.33;;;9.20;;
55009;SDS011;40903;51.638;7.528;2023-05-07T04:31:00;11.20;;;10.10;;
55009;SDS011;40903;51.638;7.528;2023-05-07T04:33:25;12.27;;;9.87;;
55009;SDS011;40903;51.638;7.528;2023-05-07T04:35:50;10.60;;;9.43;;
55009;SDS011;40903;51.638;7.528;2023-05-07T04:38:16;11.40;;;10.30;;
55009;SDS011;40903;51.638;7.528;2023-05-07T04:40:43;11.27;;;10.27;;
55009;SDS011;40903;51.638;7.528;2023-05-07T04:43:08;14.67;;;12.00;;
55009;SDS011;40903;51.638;7.528;2023-05-07T04:45:34;11.77;;;10.70;;
55009;SDS011;40903;51.638;7.528;2023-05-07T04:48:00;12.57;;;11.27;;
55009;SDS011;40903;51.638;7.528;2023-05-07T04:50:25;11.40;;;10.23;;
55009;SDS011;40903;51.638;7.528;2023-05-07T04:52:51;14.37;;;12.10;;
55009;SDS011;40903;51.638;7.528;2023-05-07T04:55:17;12.33;;;11.13;;
55009;SDS011;40903;51.638;7.528;2023-05-07T04:57:42;13.53;;;12.27;;
55009;SDS011;40903;51.638;7.528;2023-05-07T05:00:08;15.40;;;12.90;;
55009;SDS011;40903;51.638;7.528;2023-05-07T05:02:34;16.47;;;12.77;;
55009;SDS011;40903;51.638;7.528;2023-05-07T05:05:00;15.50;;;13.77;;
55009;SDS011;40903;51.638;7.528;2023-05-07T05:07:29;15.37;;;13.47;;
55009;SDS011;40903;51.638;7.528;2023-05-07T05:09:54;16.80;;;13.33;;
55009;SDS011;40903;51.638;7.528;2023-05-07T05:12:20;16.50;;;13.97;;
55009;SDS011;40903;51.638;7.528;2023-05-07T05:14:46;16.60;;;13.13;;
55009;SDS011;40903;51.638;7.528;2023-05-07T05:17:12;15.10;;;13.53;;
55009;SDS011;40903;51.638;7.528;2023-05-07T05:19:37;15.37;;;13.87;;
55009;SDS011;40903;51.638;7.528;2023-05-07T05:22:02;15.30;;;13.70;;
55009;SDS011;40903;51.638;7.528;2023-05-07T05:24:28;15.63;;;14.03;;
55009;SDS011;40903;51.638;7.528;2023-05-07T05:26:55;16.17;;;14.47;;
55009;SDS011;40903;51.638;7.528;2023-05-07T05:29:20;14.73;;;13.00;;
55009;SDS011;40903;51.638;7.528;2023-05-07T05:31:45;14.03;;;12.63;;
55009;SDS011;40903;51.638;7.528;2023-05-07T05:34:11;13.93;;;12.53;;
55009;SDS011;40903;51.638;7.528;2023-05-07T05:36:36;15.50;;;14.00;;
55009;SDS011;40903;51.638;7.528;2023-05-07T05:39:01;15.53;;;13.07;;
55009;SDS011;40903;51.638;7.528;2023-05-07T05:41:27;19.23;;;13.27;;
55009;SDS011;40903;51.638;7.528;2023-05-07T05:43:52;15.93;;;13.27;;
55009;SDS011;40903;51.638;7.528;2023-05-07T05:46:17;14.80;;;13.30;;
55009;SDS011;40903;51.638;7.528;2023-05-07T05:48:43;18.10;;;14.47;;
55009;SDS011;40903;51.638;7.528;2023-05-07T05:51:08;15.53;;;13.90;;
55009;SDS011;40903;51.638;7.528;2023-05-07T05:53:33;14.80;;;13.40;;
55009;SDS011;40903;51.638;7.528;2023-05-07T05:55:59;15.27;;;13.33;;
55009;SDS011;40903;51.638;7.528;2023-05-07T05:58:24;15.87;;;13.83;;
55009;SDS011;40903;51.638;7.528;2023-05-07T06:00:49;16.23;;;14.53;;
55009;SDS011;40903;51.638;7.528;2023-05-07T06:03:17;17.87;;;15.20;;
55009;SDS011;40903;51.638;7.528;2023-05-07T06:05:42;19.13;;;15.67;;
55009;SDS011;40903;51.638;7.528;2023-05-07T06:08:08;17.63;;;15.73;;
55009;SDS011;40903;51.638;7.528;2023-05-07T06:10:33;17.33;;;15.60;;
55009;SDS011;40903;51.638;7.528;2023-05-07T06:13:01;18.40;;;14.83;;
55009;SDS011;40903;51.638;7.528;2023-05-07T06:15:26;17.10;;;15.40;;
55009;SDS011;40903;51.638;7.528;2023-05-07T06:17:52;16.77;;;14.93;;
55009;SDS011;40903;51.638;7.528;2023-05-07T06:20:17;18.80;;;16.47;;
55009;SDS011;40903;51.638;7.528;2023-05-07T06:22:43;16.03;;;14.33;;
55009;SDS011;40903;51.638;7.528;2023-05-07T06:25:08;17.30;;;15.33;;
55009;SDS011;40903;51.638;7.528;2023-05-07T06:27:34;18.33;;;16.50;;
55009;SDS011;40903;51.638;7.528;2023-05-07T06:29:59;19.43;;;16.23;;
55009;SDS011;40903;51.638;7.528;2023-05-07T06:32:24;18.57;;;16.67;;
55009;SDS011;40903;51.638;7.528;2023-05-07T06:34:50;19.03;;;17.00;;
55009;SDS011;40903;51.638;7.528;2023-05-07T06:37:15;18.97;;;15.90;;
55009;SDS011;40903;51.638;7.528;2023-05-07T06:39:40;19.70;;;17.70;;
55009;SDS011;40903;51.638;7.528;2023-05-07T06:42:06;19.00;;;17.00;;
55009;SDS011;40903;51.638;7.528;2023-05-07T06:44:31;18.20;;;16.40;;
55009;SDS011;40903;51.638;7.528;2023-05-07T06:46:57;17.63;;;15.80;;
55009;SDS011;40903;51.638;7.528;2023-05-07T06:49:22;18.33;;;16.53;;
55009;SDS011;40903;51.638;7.528;2023-05-07T06:51:47;18.67;;;16.70;;
55009;SDS011;40903;51.638;7.528;2023-05-07T06:54:13;20.90;;;17.80;;
55009;SDS011;40903;51.638;7.528;2023-05-07T06:56:38;18.93;;;17.03;;
55009;SDS011;40903;51.638;7.528;2023-05-07T06:59:03;22.00;;;18.00;;
55009;SDS011;40903;51.638;7.528;2023-05-07T07:01:29;19.30;;;17.23;;
55009;SDS011;40903;51.638;7.528;2023-05-07T07:03:54;20.10;;;17.93;;
55009;SDS011;40903;51.638;7.528;2023-05-07T07:06:20;19.70;;;17.70;;
55009;SDS011;40903;51.638;7.528;2023-05-07T07:08:45;19.60;;;17.60;;
55009;SDS011;40903;51.638;7.528;2023-05-07T07:11:11;19.60;;;17.70;;
55009;SDS011;40903;51.638;7.528;2023-05-07T07:13:36;19.73;;;16.90;;
55009;SDS011;40903;51.638;7.528;2023-05-07T07:16:02;19.30;;;17.27;;
55009;SDS011;40903;51.638;7.528;2023-05-07T07:18:28;18.67;;;16.67;;
55009;SDS011;40903;51.638;7.528;2023-05-07T07:20:53;20.13;;;18.07;;
55009;SDS011;40903;51.638;7.528;2023-05-07T07:23:19;19.70;;;17.77;;
55009;SDS011;40903;51.638;7.528;2023-05-07T07:25:45;19.37;;;17.27;;
55009;SDS011;40903;51.638;7.528;2023-05-07T07:28:10;19.73;;;17.63;;
55009;SDS011;40903;51.638;7.528;2023-05-07T07:30:36;18.83;;;16.93;;
55009;SDS011;40903;51.638;7.528;2023-05-07T07:33:01;19.17;;;17.17;;
55009;SDS011;40903;51.638;7.528;2023-05-07T07:35:30;20.50;;;16.17;;
55009;SDS011;40903;51.638;7.528;2023-05-07T07:37:56;17.97;;;16.10;;
55009;SDS011;40903;51.638;7.528;2023-05-07T07:40:21;18.83;;;17.03;;
55009;SDS011;40903;51.638;7.528;2023-05-07T07:42:46;18.37;;;15.93;;
55009;SDS011;40903;51.638;7.528;2023-05-07T07:45:12;18.17;;;16.00;;
55009;SDS011;40903;51.638;7.528;2023-05-07T07:47:39;16.80;;;15.13;;
55009;SDS011;40903;51.638;7.528;2023-05-07T07:50:05;17.20;;;15.45;;
55009;SDS011;40903;51.638;7.528;2023-05-07T07:52:31;16.90;;;15.23;;
55009;SDS011;40903;51.638;7.528;2023-05-07T07:54:56;16.97;;;15.20;;
55009;SDS011;40903;51.638;7.528;2023-05-07T07:57:21;17.27;;;15.47;;
55009;SDS011;40903;51.638;7.528;2023-05-07T07:59:47;16.93;;;15.23;;
55009;SDS011;40903;51.638;7.528;2023-05-07T08:02:12;16.70;;;15.03;;
55009;SDS011;40903;51.638;7.528;2023-05-07T08:04:37;18.17;;;14.83;;
55009;SDS011;40903;51.638;7.528;2023-05-07T08:07:03;16.33;;;14.40;;
55009;SDS011;40903;51.638;7.528;2023-05-07T08:09:28;18.37;;;16.07;;
55009;SDS011;40903;51.638;7.528;2023-05-07T08:11:54;17.07;;;15.47;;
55009;SDS011;40903;51.638;7.528;2023-05-07T08:14:19;17.53;;;15.50;;
55009;SDS011;40903;51.638;7.528;2023-05-07T08:16:44;16.80;;;15.13;;
55009;SDS011;40903;51.638;7.528;2023-05-07T08:19:12;17.13;;;15.23;;
55009;SDS011;40903;51.638;7.528;2023-05-07T08:21:38;16.40;;;14.70;;
55009;SDS011;40903;51.638;7.528;2023-05-07T08:24:04;15.50;;;13.93;;
55009;SDS011;40903;51.638;7.528;2023-05-07T08:26:30;16.93;;;15.13;;
55009;SDS011;40903;51.638;7.528;2023-05-07T08:28:55;16.37;;;14.67;;
55009;SDS011;40903;51.638;7.528;2023-05-07T08:31:20;16.13;;;14.53;;
55009;SDS011;40903;51.638;7.528;2023-05-07T08:33:46;15.47;;;13.80;;
55009;SDS011;40903;51.638;7.528;2023-05-07T08:36:11;15.10;;;13.57;;
55009;SDS011;40903;51.638;7.528;2023-05-07T08:38:37;15.47;;;14.03;;
55009;SDS011;40903;51.638;7.528;2023-05-07T08:41:03;16.27;;;14.67;;
55009;SDS011;40903;51.638;7.528;2023-05-07T08:43:28;15.57;;;13.83;;
55009;SDS011;40903;51.638;7.528;2023-05-07T08:45:58;15.37;;;13.77;;
55009;SDS011;40903;51.638;7.528;2023-05-07T08:48:27;14.83;;;13.43;;
55009;SDS011;40903;51.638;7.528;2023-05-07T08:50:55;15.03;;;13.47;;
55009;SDS011;40903;51.638;7.528;2023-05-07T08:53:20;14.80;;;13.23;;
55009;SDS011;40903;51.638;7.528;2023-05-07T08:55:46;14.63;;;12.33;;
55009;SDS011;40903;51.638;7.528;2023-05-07T08:58:12;14.07;;;12.67;;
55009;SDS011;40903;51.638;7.528;2023-05-07T09:00:38;16.30;;;14.70;;
55009;SDS011;40903;51.638;7.528;2023-05-07T09:03:05;15.73;;;14.13;;
55009;SDS011;40903;51.638;7.528;2023-05-07T09:05:30;13.80;;;12.17;;
55009;SDS011;40903;51.638;7.528;2023-05-07T09:07:58;12.83;;;11.50;;
55009;SDS011;40903;51.638;7.528;2023-05-07T09:10:25;14.40;;;12.73;;
55009;SDS011;40903;51.638;7.528;2023-05-07T09:12:51;14.73;;;12.93;;
55009;SDS011;40903;51.638;7.528;2023-05-07T09:15:16;14.27;;;12.77;;
55009;SDS011;40903;51.638;7.528;2023-05-07T09:17:43;14.50;;;13.00;;
55009;SDS011;40903;51.638;7.528;2023-05-07T09:20:08;13.70;;;12.30;;
55009;SDS011;40903;51.638;7.528;2023-05-07T09:22:36;16.23;;;13.87;;
55009;SDS011;40903;51.638;7.528;2023-05-07T09:25:02;15.07;;;13.47;;
55009;SDS011;40903;51.638;7.528;2023-05-07T09:27:28;15.83;;;13.17;;
55009;SDS011;40903;51.638;7.528;2023-05-07T09:29:53;14.83;;;13.33;;
55009;SDS011;40903;51.638;7.528;2023-05-07T09:32:18;13.73;;;12.43;;
55009;SDS011;40903;51.638;7.528;2023-05-07T09:34:47;14.47;;;13.07;;
55009;SDS011;40903;51.638;7.528;2023-05-07T09:37:12;13.13;;;11.83;;
55009;SDS011;40903;51.638;7.528;2023-05-07T09:39:40;13.30;;;11.60;;
55009;SDS011;40903;51.638;7.528;2023-05-07T09:42:06;13.90;;;12.47;;
55009;SDS011;40903;51.638;7.528;2023-05-07T09:44:32;14.13;;;12.63;;
55009;SDS011;40903;51.638;7.528;2023-05-07T09:46:58;13.43;;;12.23;;
55009;SDS011;40903;51.638;7.528;2023-05-07T09:49:25;14.50;;;13.07;;
55009;SDS011;40903;51.638;7.528;2023-05-07T09:51:55;14.33;;;12.87;;
55009;SDS011;40903;51.638;7.528;2023-05-07T09:54:21;15.90;;;14.30;;
55009;SDS011;40903;51.638;7.528;2023-05-07T09:56:50;16.00;;;14.43;;
55009;SDS011;40903;51.638;7.528;2023-05-07T09:59:17;15.67;;;14.00;;
55009;SDS011;40903;51.638;7.528;2023-05-07T10:01:44;15.50;;;13.77;;
55009;SDS011;40903;51.638;7.528;2023-05-07T10:04:10;14.40;;;13.00;;
55009;SDS011;40903;51.638;7.528;2023-05-07T10:06:37;15.37;;;13.87;;
55009;SDS011;40903;51.638;7.528;2023-05-07T10:09:04;15.83;;;14.20;;
55009;SDS011;40903;51.638;7.528;2023-05-07T10:11:31;16.73;;;14.97;;
55009;SDS011;40903;51.638;7.528;2023-05-07T10:13:58;15.10;;;13.60;;
55009;SDS011;40903;51.638;7.528;2023-05-07T10:16:23;15.53;;;14.00;;
55009;SDS011;40903;51.638;7.528;2023-05-07T10:18:50;14.47;;;12.97;;
55009;SDS011;40903;51.638;7.528;2023-05-07T10:21:20;16.40;;;14.67;;
55009;SDS011;40903;51.638;7.528;2023-05-07T10:23:54;14.33;;;12.87;;
55009;SDS011;40903;51.638;7.528;2023-05-07T10:26:25;14.53;;;13.03;;
55009;SDS011;40903;51.638;7.528;2023-05-07T10:28:55;13.50;;;12.20;;
55009;SDS011;40903;51.638;7.528;2023-05-07T10:34:23;13.27;;;11.97;;
55009;SDS011;40903;51.638;7.528;2023-05-07T10:36:53;14.30;;;12.80;;
55009;SDS011;40903;51.638;7.528;2023-05-07T10:39:20;13.07;;;11.77;;
55009;SDS011;40903;51.638;7.528;2023-05-07T10:41:46;14.53;;;11.93;;
55009;SDS011;40903;51.638;7.528;2023-05-07T10:44:24;16.17;;;13.80;;
55009;SDS011;40903;51.638;7.528;2023-05-07T10:47:03;14.23;;;11.40;;
55009;SDS011;40903;51.638;7.528;2023-05-07T10:49:29;12.27;;;10.13;;
55009;SDS011;40903;51.638;7.528;2023-05-07T10:52:14;11.37;;;10.27;;
55009;SDS011;40903;51.638;7.528;2023-05-07T10:54:44;12.10;;;11.10;;
55009;SDS011;40903;51.638;7.528;2023-05-07T11:00:47;12.87;;;11.43;;
55009;SDS011;40903;51.638;7.528;2023-05-07T11:05:26;11.30;;;10.20;;
55009;SDS011;40903;51.638;7.528;2023-05-07T11:07:54;13.27;;;11.67;;
55009;SDS011;40903;51.638;7.528;2023-05-07T11:10:23;9.87;;;8.67;;
55009;SDS011;40903;51.638;7.528;2023-05-07T11:16:23;10.63;;;9.53;;
55009;SDS011;40903;51.638;7.528;2023-05-07T11:18:54;11.17;;;10.07;;
55009;SDS011;40903;51.638;7.528;2023-05-07T11:21:33;12.73;;;11.07;;
55009;SDS011;40903;51.638;7.528;2023-05-07T11:23:59;11.93;;;10.70;;
55009;SDS011;40903;51.638;7.528;2023-05-07T11:26:26;10.27;;;9.07;;
55009;SDS011;40903;51.638;7.528;2023-05-07T11:28:53;10.73;;;9.67;;
55009;SDS011;40903;51.638;7.528;2023-05-07T11:31:23;10.40;;;9.23;;
55009;SDS011;40903;51.638;7.528;2023-05-07T11:33:51;10.17;;;9.00;;
55009;SDS011;40903;51.638;7.528;2023-05-07T11:36:17;8.50;;;7.60;;
55009;SDS011;40903;51.638;7.528;2023-05-07T11:38:43;11.87;;;8.57;;
55009;SDS011;40903;51.638;7.528;2023-05-07T11:41:08;10.97;;;9.20;;
55009;SDS011;40903;51.638;7.528;2023-05-07T11:43:35;10.00;;;9.07;;
55009;SDS011;40903;51.638;7.528;2023-05-07T11:46:10;9.77;;;8.80;;
55009;SDS011;40903;51.638;7.528;2023-05-07T11:48:37;10.33;;;8.67;;
55009;SDS011;40903;51.638;7.528;2023-05-07T11:51:04;9.53;;;8.50;;
55009;SDS011;40903;51.638;7.528;2023-05-07T11:53:40;8.97;;;8.13;;
55009;SDS011;40903;51.638;7.528;2023-05-07T11:56:10;9.57;;;8.63;;
55009;SDS011;40903;51.638;7.528;2023-05-07T11:58:52;10.10;;;9.10;;
55009;SDS011;40903;51.638;7.528;2023-05-07T12:01:17;8.40;;;7.50;;
55009;SDS011;40903;51.638;7.528;2023-05-07T12:03:44;7.97;;;7.17;;
55009;SDS011;40903;51.638;7.528;2023-05-07T12:06:11;8.80;;;7.90;;
55009;SDS011;40903;51.638;7.528;2023-05-07T12:08:38;9.87;;;7.83;;
55009;SDS011;40903;51.638;7.528;2023-05-07T12:11:06;8.30;;;7.07;;
55009;SDS011;40903;51.638;7.528;2023-05-07T12:13:33;8.37;;;7.57;;
55009;SDS011;40903;51.638;7.528;2023-05-07T12:15:59;8.53;;;7.73;;
55009;SDS011;40903;51.638;7.528;2023-05-07T12:18:24;8.60;;;7.80;;
55009;SDS011;40903;51.638;7.528;2023-05-07T12:20:50;8.83;;;6.80;;
55009;SDS011;40903;51.638;7.528;2023-05-07T12:23:16;8.13;;;6.97;;
55009;SDS011;40903;51.638;7.528;2023-05-07T12:25:42;7.43;;;6.73;;
55009;SDS011;40903;51.638;7.528;2023-05-07T12:28:18;8.03;;;6.97;;
55009;SDS011;40903;51.638;7.528;2023-05-07T12:30:44;6.90;;;6.10;;
55009;SDS011;40903;51.638;7.528;2023-05-07T12:33:16;7.40;;;6.70;;
55009;SDS011;40903;51.638;7.528;2023-05-07T12:35:49;7.17;;;6.43;;
55009;SDS011;40903;51.638;7.528;2023-05-07T12:38:18;6.80;;;6.20;;
55009;SDS011;40903;51.638;7.528;2023-05-07T12:40:45;5.80;;;5.30;;
55009;SDS011;40903;51.638;7.528;2023-05-07T12:43:16;7.13;;;6.23;;
55009;SDS011;40903;51.638;7.528;2023-05-07T12:45:49;5.77;;;5.27;;
55009;SDS011;40903;51.638;7.528;2023-05-07T12:48:15;5.50;;;5.00;;
55009;SDS011;40903;51.638;7.528;2023-05-07T12:50:41;6.83;;;6.17;;
55009;SDS011;40903;51.638;7.528;2023-05-07T12:53:07;8.00;;;6.17;;
55009;SDS011;40903;51.638;7.528;2023-05-07T12:55:46;10.93;;;6.77;;
55009;SDS011;40903;51.638;7.528;2023-05-07T12:58:32;7.10;;;5.63;;
55009;SDS011;40903;51.638;7.528;2023-05-07T13:01:00;7.43;;;6.73;;
55009;SDS011;40903;51.638;7.528;2023-05-07T13:06:00;7.17;;;6.40;;
55009;SDS011;40903;51.638;7.528;2023-05-07T13:08:31;6.70;;;6.10;;
55009;SDS011;40903;51.638;7.528;2023-05-07T13:10:59;6.53;;;5.80;;
55009;SDS011;40903;51.638;7.528;2023-05-07T13:13:31;6.87;;;6.17;;
55009;SDS011;40903;51.638;7.528;2023-05-07T13:15:59;7.13;;;6.23;;
55009;SDS011;40903;51.638;7.528;2023-05-07T13:18:25;6.63;;;5.83;;
55009;SDS011;40903;51.638;7.528;2023-05-07T13:20:51;7.43;;;6.73;;
55009;SDS011;40903;51.638;7.528;2023-05-07T13:23:17;6.47;;;5.87;;
55009;SDS011;40903;51.638;7.528;2023-05-07T13:25:42;6.20;;;5.60;;
55009;SDS011;40903;51.638;7.528;2023-05-07T13:28:08;6.40;;;5.90;;
55009;SDS011;40903;51.638;7.528;2023-05-07T13:30:33;6.90;;;6.17;;
55009;SDS011;40903;51.638;7.528;2023-05-07T13:32:58;6.07;;;5.47;;
55009;SDS011;40903;51.638;7.528;2023-05-07T13:35:24;6.80;;;6.10;;
55009;SDS011;40903;51.638;7.528;2023-05-07T13:37:49;8.33;;;7.53;;
55009;SDS011;40903;51.638;7.528;2023-05-07T13:40:16;7.97;;;7.17;;
55009;SDS011;40903;51.638;7.528;2023-05-07T13:42:42;8.80;;;7.10;;
55009;SDS011;40903;51.638;7.528;2023-05-07T13:45:07;7.67;;;6.27;;
55009;SDS011;40903;51.638;7.528;2023-05-07T13:47:34;7.17;;;6.57;;
55009;SDS011;40903;51.638;7.528;2023-05-07T13:49:59;6.43;;;5.83;;
55009;SDS011;40903;51.638;7.528;2023-05-07T13:52:25;7.30;;;6.60;;
55009;SDS011;40903;51.638;7.528;2023-05-07T13:54:51;6.90;;;6.20;;
55009;SDS011;40903;51.638;7.528;2023-05-07T13:57:17;6.60;;;5.93;;
55009;SDS011;40903;51.638;7.528;2023-05-07T13:59:43;7.07;;;6.37;;
55009;SDS011;40903;51.638;7.528;2023-05-07T14:02:08;7.87;;;6.90;;
55009;SDS011;40903;51.638;7.528;2023-05-07T14:04:34;7.53;;;6.73;;
55009;SDS011;40903;51.638;7.528;2023-05-07T14:06:59;7.60;;;6.77;;
55009;SDS011;40903;51.638;7.528;2023-05-07T14:09:25;7.27;;;6.63;;
55009;SDS011;40903;51.638;7.528;2023-05-07T14:11:50;7.63;;;6.63;;
55009;SDS011;40903;51.638;7.528;2023-05-07T14:14:18;8.27;;;6.10;;
55009;SDS011;40903;51.638;7.528;2023-05-07T14:16:44;7.70;;;7.00;;
55009;SDS011;40903;51.638;7.528;2023-05-07T14:19:10;7.17;;;6.57;;
55009;SDS011;40903;51.638;7.528;2023-05-07T14:21:36;6.87;;;6.27;;
55009;SDS011;40903;51.638;7.528;2023-05-07T14:24:01;7.00;;;6.10;;
55009;SDS011;40903;51.638;7.528;2023-05-07T14:26:26;7.60;;;6.80;;
55009;SDS011;40903;51.638;7.528;2023-05-07T14:28:52;6.77;;;6.20;;
55009;SDS011;40903;51.638;7.528;2023-05-07T14:31:20;6.97;;;6.10;;
55009;SDS011;40903;51.638;7.528;2023-05-07T14:33:45;8.60;;;6.30;;
55009;SDS011;40903;51.638;7.528;2023-05-07T14:36:10;7.10;;;6.50;;
55009;SDS011;40903;51.638;7.528;2023-05-07T14:38:36;6.10;;;5.57;;
55009;SDS011;40903;51.638;7.528;2023-05-07T14:41:01;6.40;;;5.77;;